Time;durP1;ratioP1;P1;durP2;ratioP2;P2;SDS_P1;SDS_P2;PMS_P1;PMS_P2;Temp;Humidity;BMP_temperature;BMP_pressure;BME280_temperature;BME280_humidity;BME280_pressure;Samples;Min_cycle;Max_cycle;Signal;HPM_P1;HPM_P2
2023/12/24 00:01:12;;;;;;;4.07;1.23;;;23.60;74.30;;;;;;5017670;28;20113;-83
2023/12/24 00:03:40;;;;;;;4.68;1.15;;;23.60;74.00;;;;;;5015628;28;20112;-76
2023/12/24 00:06:07;;;;;;;4.50;1.52;;;23.50;74.10;;;;;;5021776;28;20552;-85
2023/12/24 00:08:36;;;;;;;4.70;1.20;;;23.50;74.20;;;;;;5033355;28;20037;-83
2023/12/24 00:11:03;;;;;;;6.78;1.30;;;23.40;74.30;;;;;;5027806;28;20029;-83
2023/12/24 00:13:31;;;;;;;5.82;1.10;;;23.40;74.40;;;;;;5014135;28;20026;-84
2023/12/24 00:15:59;;;;;;;3.83;1.10;;;23.40;74.70;;;;;;5014260;28;20101;-84
2023/12/24 00:18:26;;;;;;;3.65;1.10;;;23.30;74.60;;;;;;5009781;28;20085;-84
2023/12/24 00:20:54;;;;;;;6.80;1.08;;;23.30;74.80;;;;;;5009583;28;20030;-80
2023/12/24 00:23:21;;;;;;;7.88;1.33;;;23.30;74.90;;;;;;5013359;28;20021;-85
2023/12/24 00:25:48;;;;;;;7.18;1.58;;;23.30;74.90;;;;;;5007392;28;20087;-85
2023/12/24 00:28:16;;;;;;;7.28;1.58;;;23.30;74.70;;;;;;5011906;28;20065;-84
2023/12/24 00:30:44;;;;;;;6.80;1.25;;;23.30;74.90;;;;;;5008230;28;20033;-81
2023/12/24 00:33:11;;;;;;;2.47;1.10;;;23.20;74.80;;;;;;5027557;28;20022;-85
2023/12/24 00:35:39;;;;;;;6.97;1.42;;;23.20;74.70;;;;;;5013281;28;20018;-82
2023/12/24 00:38:06;;;;;;;7.07;1.77;;;23.20;74.80;;;;;;5012629;28;20024;-85
2023/12/24 00:40:34;;;;;;;5.90;1.73;;;23.10;74.90;;;;;;5011982;28;20038;-83
2023/12/24 00:43:02;;;;;;;9.50;1.95;;;23.10;75.30;;;;;;5005243;28;20049;-83
2023/12/24 00:45:29;;;;;;;8.85;2.38;;;23.10;76.10;;;;;;5013348;28;20034;-83
2023/12/24 00:47:57;;;;;;;5.43;1.27;;;23.00;76.20;;;;;;5026091;28;20139;-86
2023/12/24 00:50:24;;;;;;;8.30;1.40;;;23.00;76.30;;;;;;5033215;28;20029;-86
2023/12/24 00:52:52;;;;;;;8.05;2.20;;;22.90;76.90;;;;;;5013560;28;20084;-85
2023/12/24 00:55:19;;;;;;;6.88;1.90;;;22.80;78.00;;;;;;5026560;28;20488;-87
2023/12/24 00:57:47;;;;;;;7.05;1.83;;;22.80;78.30;;;;;;5033737;28;20029;-87
2023/12/24 01:00:16;;;;;;;9.93;1.85;;;22.70;79.10;;;;;;5021701;28;20392;-87
2023/12/24 01:02:43;;;;;;;12.32;2.42;;;22.60;79.80;;;;;;5028993;28;20061;-88
2023/12/24 01:05:11;;;;;;;8.48;2.08;;;22.50;80.10;;;;;;5019473;28;20045;-87
2023/12/24 01:07:38;;;;;;;9.77;2.15;;;22.30;80.00;;;;;;5013237;28;20042;-87
2023/12/24 01:10:06;;;;;;;7.53;2.22;;;22.30;80.50;;;;;;5012513;28;20032;-83
2023/12/24 01:12:33;;;;;;;11.20;2.15;;;22.20;80.80;;;;;;5018922;28;20025;-86
2023/12/24 01:15:01;;;;;;;11.82;1.92;;;22.00;80.90;;;;;;4994137;28;20566;-85
2023/12/24 01:17:28;;;;;;;11.70;2.47;;;22.00;81.40;;;;;;5013336;28;20408;-83
2023/12/24 01:19:57;;;;;;;11.15;2.13;;;21.90;82.10;;;;;;5014954;28;20022;-85
2023/12/24 01:22:25;;;;;;;12.68;2.85;;;21.80;82.70;;;;;;5013232;28;20061;-85
2023/12/24 01:24:52;;;;;;;12.45;2.60;;;21.70;82.70;;;;;;5013802;28;20018;-84
2023/12/24 01:27:20;;;;;;;14.07;2.65;;;21.60;83.20;;;;;;5013828;28;20084;-86
2023/12/24 01:29:49;;;;;;;17.33;3.05;;;21.50;83.50;;;;;;5013496;28;20025;-86
2023/12/24 01:32:16;;;;;;;12.20;2.97;;;21.40;83.60;;;;;;5011821;28;20504;-86
2023/12/24 01:34:44;;;;;;;11.15;2.80;;;21.40;84.10;;;;;;5005713;28;20034;-86
2023/12/24 01:37:11;;;;;;;12.18;3.00;;;21.30;84.20;;;;;;5013267;28;20028;-87
2023/12/24 01:39:39;;;;;;;16.67;4.18;;;21.30;84.50;;;;;;5011966;28;20058;-85
2023/12/24 01:42:06;;;;;;;16.55;3.40;;;21.30;84.90;;;;;;5016515;28;20025;-87
2023/12/24 01:44:34;;;;;;;13.18;4.00;;;21.20;85.30;;;;;;5023006;28;20080;-81
2023/12/24 01:47:01;;;;;;;21.05;3.83;;;21.10;85.50;;;;;;5023757;28;20033;-81
2023/12/24 01:49:29;;;;;;;16.15;3.58;;;21.10;85.50;;;;;;5029420;28;20040;-80
2023/12/24 01:51:57;;;;;;;9.65;3.00;;;21.00;85.60;;;;;;5017303;28;20057;-87
2023/12/24 01:54:29;;;;;;;8.35;2.28;;;20.90;85.90;;;;;;5013394;28;20040;-85
2023/12/24 01:56:57;;;;;;;9.23;2.30;;;20.80;86.00;;;;;;5011787;28;20340;-86
2023/12/24 01:59:24;;;;;;;10.18;2.67;;;20.80;86.30;;;;;;5014847;28;20030;-84
2023/12/24 02:01:54;;;;;;;6.35;2.00;;;20.80;86.50;;;;;;5022921;28;20092;-86
2023/12/24 02:04:21;;;;;;;9.45;2.47;;;20.70;86.60;;;;;;5018932;28;20026;-87
2023/12/24 02:06:50;;;;;;;10.65;1.73;;;20.70;87.00;;;;;;5007711;28;20408;-85
2023/12/24 02:09:21;;;;;;;5.30;1.45;;;20.60;86.90;;;;;;5015734;28;20025;-87
2023/12/24 02:11:48;;;;;;;9.00;1.92;;;20.60;87.20;;;;;;5020400;28;20021;-86
2023/12/24 02:14:16;;;;;;;9.32;2.67;;;20.50;87.50;;;;;;5029441;28;20022;-88
2023/12/24 02:16:47;;;;;;;14.45;2.42;;;20.40;87.70;;;;;;5024900;28;20071;-86
2023/12/24 02:19:19;;;;;;;13.18;2.58;;;20.40;87.80;;;;;;5032597;28;20087;-87
2023/12/24 02:21:46;;;;;;;12.27;2.28;;;20.40;88.10;;;;;;5015528;28;20600;-86
2023/12/24 02:24:15;;;;;;;10.50;1.90;;;20.40;88.30;;;;;;5001568;28;20025;-87
2023/12/24 02:26:54;;;;;;;11.65;2.20;;;20.40;88.50;;;;;;4999597;28;20444;-87
2023/12/24 02:29:34;;;;;;;8.13;2.15;;;20.50;89.00;;;;;;5012562;28;20137;-85
2023/12/24 02:32:17;;;;;;;9.50;2.13;;;20.50;88.90;;;;;;5018715;28;20022;-89
2023/12/24 02:34:49;;;;;;;15.85;2.60;;;20.60;88.80;;;;;;5011216;28;20022;-84
2023/12/24 02:37:20;;;;;;;14.98;2.40;;;20.70;89.20;;;;;;5019766;28;20018;-89
2023/12/24 02:39:48;;;;;;;12.90;2.78;;;20.60;89.20;;;;;;5015875;28;20121;-86
2023/12/24 02:42:40;;;;;;;9.52;2.00;;;20.70;89.40;;;;;;5015993;28;20393;-82
2023/12/24 02:45:13;;;;;;;17.55;1.92;;;20.70;89.40;;;;;;5016270;28;20034;-89
2023/12/24 02:47:41;;;;;;;15.95;2.40;;;20.70;89.20;;;;;;5014005;28;20117;-89
2023/12/24 02:50:10;;;;;;;13.38;2.20;;;20.60;89.10;;;;;;5005581;28;20029;-83
2023/12/24 02:52:37;;;;;;;10.55;2.08;;;20.60;89.10;;;;;;5017551;28;20029;-87
2023/12/24 02:55:05;;;;;;;17.00;2.80;;;20.60;89.20;;;;;;5014423;28;20026;-89
2023/12/24 02:57:32;;;;;;;17.50;2.75;;;20.60;89.10;;;;;;5024372;28;20026;-89
2023/12/24 03:00:00;;;;;;;10.90;1.88;;;20.60;89.30;;;;;;5016671;28;20030;-90
2023/12/24 03:02:28;;;;;;;14.40;2.60;;;20.60;89.20;;;;;;5014488;28;20392;-89
2023/12/24 03:04:55;;;;;;;13.00;2.72;;;20.50;89.20;;;;;;5014492;28;20018;-89
2023/12/24 03:07:23;;;;;;;15.52;2.38;;;20.60;89.10;;;;;;4998796;28;20060;-88
2023/12/24 03:09:50;;;;;;;17.63;2.30;;;20.60;89.20;;;;;;5006096;28;20157;-89
2023/12/24 03:12:18;;;;;;;10.13;2.45;;;20.50;89.20;;;;;;5014833;28;20040;-84
2023/12/24 03:14:45;;;;;;;15.60;3.10;;;20.50;89.30;;;;;;5006816;28;20018;-90
2023/12/24 03:17:13;;;;;;;15.73;2.58;;;20.50;89.40;;;;;;5012433;28;20026;-89
2023/12/24 03:19:41;;;;;;;10.70;2.43;;;20.50;89.50;;;;;;5014457;28;20009;-87
2023/12/24 03:22:08;;;;;;;14.73;2.35;;;20.50;89.50;;;;;;5018141;28;20113;-88
2023/12/24 03:24:37;;;;;;;12.20;2.38;;;20.50;89.50;;;;;;5013109;28;20481;-88
2023/12/24 03:27:05;;;;;;;14.55;2.30;;;20.60;89.60;;;;;;5015481;28;20466;-89
2023/12/24 03:29:32;;;;;;;8.57;2.08;;;20.60;89.70;;;;;;5014559;28;20096;-89
2023/12/24 03:31:59;;;;;;;9.57;2.40;;;20.60;89.70;;;;;;5015194;28;20473;-90
2023/12/24 03:34:27;;;;;;;10.65;2.45;;;20.60;89.70;;;;;;5006667;28;20040;-89
2023/12/24 03:36:55;;;;;;;15.05;2.70;;;20.60;89.70;;;;;;5015466;28;20535;-91
2023/12/24 03:39:27;;;;;;;14.05;2.80;;;20.60;89.70;;;;;;5015569;28;20033;-91
2023/12/24 03:41:54;;;;;;;16.10;3.00;;;20.60;89.70;;;;;;5015423;28;20381;-89
2023/12/24 03:44:24;;;;;;;14.40;2.70;;;20.70;89.80;;;;;;5014333;28;20026;-89
2023/12/24 03:46:51;;;;;;;16.08;2.80;;;20.70;90.00;;;;;;5014582;28;20032;-87
2023/12/24 03:49:20;;;;;;;16.00;2.90;;;20.80;90.00;;;;;;5034544;28;20056;-90
2023/12/24 03:51:48;;;;;;;16.67;3.30;;;20.80;90.10;;;;;;5031988;28;20382;-91
2023/12/24 03:54:16;;;;;;;18.52;3.67;;;20.80;90.30;;;;;;5020487;28;20030;-92
2023/12/24 03:56:50;;;;;;;21.60;3.10;;;20.90;90.40;;;;;;5020665;28;20490;-91
2023/12/24 03:59:17;;;;;;;14.02;2.80;;;21.00;90.50;;;;;;5035281;28;20085;-92
2023/12/24 04:01:45;;;;;;;16.25;2.53;;;21.10;90.60;;;;;;5022182;28;20034;-91
2023/12/24 04:04:12;;;;;;;15.95;2.72;;;21.20;90.60;;;;;;5018088;28;20025;-92
2023/12/24 04:06:40;;;;;;;13.68;2.80;;;21.20;90.60;;;;;;5013982;28;20104;-91
2023/12/24 04:09:09;;;;;;;16.98;2.85;;;21.30;90.50;;;;;;5017184;28;20026;-91
2023/12/24 04:11:36;;;;;;;19.48;2.92;;;21.30;90.70;;;;;;5014629;28;20026;-92
2023/12/24 04:14:04;;;;;;;17.75;2.63;;;21.50;90.70;;;;;;5014498;28;20018;-91
2023/12/24 04:16:31;;;;;;;15.82;3.17;;;21.50;90.70;;;;;;5015292;28;20025;-90
2023/12/24 04:18:58;;;;;;;16.23;2.58;;;21.70;90.80;;;;;;5023151;28;20100;-90
2023/12/24 04:21:27;;;;;;;16.80;2.20;;;21.80;90.70;;;;;;5023326;28;20369;-90
2023/12/24 04:23:57;;;;;;;10.18;2.10;;;21.80;90.70;;;;;;5034412;28;20412;-89
2023/12/24 04:26:37;;;;;;;10.13;1.90;;;21.90;90.30;;;;;;5008296;28;20037;-91
2023/12/24 04:29:04;;;;;;;16.02;2.30;;;21.90;90.10;;;;;;5014873;28;20022;-91
2023/12/24 04:31:32;;;;;;;10.73;2.10;;;21.90;89.90;;;;;;5016126;28;20088;-93
2023/12/24 04:34:00;;;;;;;11.75;2.00;;;21.90;89.90;;;;;;5016015;28;20026;-85
2023/12/24 04:36:30;;;;;;;8.98;1.45;;;21.90;89.80;;;;;;5040339;28;20242;-91
2023/12/24 04:38:58;;;;;;;9.68;2.05;;;22.00;89.70;;;;;;5027714;28;20041;-89
2023/12/24 04:41:28;;;;;;;8.43;1.90;;;22.00;89.30;;;;;;5027215;28;20038;-88
2023/12/24 04:43:56;;;;;;;8.55;1.70;;;22.00;89.00;;;;;;5023297;28;20036;-92
2023/12/24 04:46:23;;;;;;;6.88;1.90;;;22.00;88.40;;;;;;5018444;28;20030;-93
2023/12/24 04:48:50;;;;;;;7.10;1.83;;;21.90;88.60;;;;;;5017700;28;20053;-92
2023/12/24 04:51:19;;;;;;;8.43;1.80;;;21.90;88.20;;;;;;5017650;28;20084;-91
2023/12/24 04:53:46;;;;;;;7.03;1.35;;;21.90;88.20;;;;;;5014849;28;20527;-93
2023/12/24 04:56:23;;;;;;;6.43;1.42;;;21.90;88.00;;;;;;5015704;28;20029;-88
2023/12/24 04:58:53;;;;;;;6.90;1.63;;;21.90;87.60;;;;;;5012660;28;20021;-89
2023/12/24 05:01:20;;;;;;;4.72;1.67;;;21.90;87.30;;;;;;5015080;28;20037;-75
2023/12/24 05:03:53;;;;;;;4.03;1.50;;;21.90;87.00;;;;;;5011007;28;20052;-76
2023/12/24 05:06:30;;;;;;;4.45;1.75;;;21.80;86.80;;;;;;4998167;28;20053;-81
2023/12/24 05:09:05;;;;;;;5.18;1.17;;;21.90;86.80;;;;;;5016624;28;20017;-76
2023/12/24 05:11:33;;;;;;;5.25;1.38;;;21.90;86.80;;;;;;5006860;28;20025;-74
2023/12/24 05:14:01;;;;;;;6.20;1.55;;;22.00;86.70;;;;;;5018145;28;20030;-87
2023/12/24 05:16:34;;;;;;;10.40;1.60;;;22.10;86.50;;;;;;5010212;28;20469;-76
2023/12/24 05:19:02;;;;;;;6.68;1.40;;;22.20;86.40;;;;;;5001143;28;20022;-76
2023/12/24 05:21:32;;;;;;;9.55;1.73;;;22.20;85.90;;;;;;5013565;28;20092;-84
2023/12/24 05:24:01;;;;;;;7.60;1.17;;;22.20;85.40;;;;;;5012556;28;20029;-85
2023/12/24 05:26:36;;;;;;;6.50;1.20;;;22.20;85.60;;;;;;5017059;28;20045;-89
2023/12/24 05:29:13;;;;;;;5.68;1.00;;;22.10;85.30;;;;;;5020228;28;20022;-90
2023/12/24 05:31:41;;;;;;;6.13;1.65;;;22.10;85.30;;;;;;4997438;28;20027;-89
2023/12/24 05:34:10;;;;;;;5.57;1.73;;;22.10;85.40;;;;;;5006946;28;20489;-88
2023/12/24 05:36:41;;;;;;;9.02;1.60;;;22.10;85.20;;;;;;5015236;28;20058;-87
2023/12/24 05:39:14;;;;;;;10.75;1.92;;;22.10;85.40;;;;;;5001819;28;20038;-91
2023/12/24 05:41:45;;;;;;;4.22;1.40;;;22.10;84.80;;;;;;5010828;28;20033;-84
2023/12/24 05:44:25;;;;;;;3.88;1.70;;;22.00;84.20;;;;;;5019381;28;20034;-92
2023/12/24 05:46:55;;;;;;;4.50;1.45;;;21.80;83.80;;;;;;5012650;28;20030;-88
2023/12/24 05:49:23;;;;;;;5.97;1.65;;;21.70;84.30;;;;;;5019856;28;20030;-92
2023/12/24 05:51:50;;;;;;;5.15;1.50;;;21.60;84.70;;;;;;5009413;28;20017;-79
2023/12/24 05:54:26;;;;;;;2.53;1.10;;;21.50;84.60;;;;;;5003224;28;20033;-82
2023/12/24 05:56:57;;;;;;;1.92;0.68;;;21.20;83.50;;;;;;5005902;28;20474;-82
2023/12/24 05:59:24;;;;;;;3.60;0.65;;;21.20;83.80;;;;;;5003200;28;20037;-88
2023/12/24 06:01:52;;;;;;;3.63;1.20;;;21.00;83.30;;;;;;5001853;28;20029;-77
2023/12/24 06:04:19;;;;;;;4.38;1.20;;;20.90;83.60;;;;;;5007150;28;20080;-83
2023/12/24 06:06:48;;;;;;;6.00;1.50;;;20.60;82.90;;;;;;5007294;28;20458;-87
2023/12/24 06:09:15;;;;;;;1.52;1.00;;;20.30;83.00;;;;;;5006927;28;20525;-82
2023/12/24 06:11:43;;;;;;;6.30;1.40;;;19.90;83.90;;;;;;5007700;28;20109;-81
2023/12/24 06:14:10;;;;;;;5.03;1.73;;;19.70;84.70;;;;;;5013243;28;20093;-81
2023/12/24 06:16:37;;;;;;;3.45;1.17;;;19.50;85.80;;;;;;5008216;28;20101;-79
2023/12/24 06:19:08;;;;;;;2.63;1.00;;;19.30;85.90;;;;;;5017785;28;20111;-77
2023/12/24 06:21:36;;;;;;;1.92;1.17;;;19.10;86.20;;;;;;4993429;28;20453;-88
2023/12/24 06:24:04;;;;;;;2.35;1.27;;;18.80;86.20;;;;;;5004880;28;20057;-75
2023/12/24 06:26:33;;;;;;;5.40;1.67;;;18.70;86.90;;;;;;5014307;28;20408;-85
2023/12/24 06:29:01;;;;;;;6.40;1.90;;;18.70;87.80;;;;;;5013190;28;20057;-86
2023/12/24 06:31:28;;;;;;;7.50;1.83;;;18.70;88.50;;;;;;5014826;28;20080;-79
2023/12/24 06:33:56;;;;;;;3.10;1.50;;;18.80;88.60;;;;;;5013316;28;20084;-83
2023/12/24 06:36:23;;;;;;;3.45;1.50;;;18.80;88.80;;;;;;5011638;28;20417;-82
2023/12/24 06:38:51;;;;;;;2.25;1.33;;;18.80;89.10;;;;;;5014291;28;20037;-84
2023/12/24 06:41:18;;;;;;;3.05;1.30;;;18.80;89.20;;;;;;5006921;28;20038;-84
2023/12/24 06:43:46;;;;;;;2.95;1.00;;;18.80;89.20;;;;;;5012427;28;20033;-81
2023/12/24 06:46:13;;;;;;;3.90;1.15;;;18.90;89.20;;;;;;5014913;28;20041;-86
2023/12/24 06:48:41;;;;;;;6.68;1.58;;;18.80;89.30;;;;;;5013273;28;20030;-77
2023/12/24 06:51:09;;;;;;;3.22;1.02;;;18.80;89.50;;;;;;5015861;28;20384;-88
2023/12/24 06:53:37;;;;;;;7.53;1.35;;;18.80;89.60;;;;;;5014359;28;20462;-89
2023/12/24 06:56:04;;;;;;;7.28;1.40;;;18.80;89.60;;;;;;5018421;28;20053;-86
2023/12/24 06:58:31;;;;;;;7.57;2.03;;;18.80;89.50;;;;;;5016390;28;20028;-86
2023/12/24 07:00:59;;;;;;;5.18;1.20;;;18.70;89.60;;;;;;5014068;28;20026;-87
2023/12/24 07:03:26;;;;;;;5.50;1.65;;;18.70;89.80;;;;;;5015556;28;20022;-86
2023/12/24 07:05:54;;;;;;;4.78;1.25;;;18.80;89.90;;;;;;5015822;28;20038;-86
2023/12/24 07:08:25;;;;;;;4.63;1.30;;;18.80;90.00;;;;;;5015669;28;20448;-87
2023/12/24 07:10:52;;;;;;;4.38;1.35;;;18.70;90.00;;;;;;5031940;28;20357;-87
2023/12/24 07:13:20;;;;;;;2.28;0.75;;;18.70;89.90;;;;;;5035598;28;20108;-88
2023/12/24 07:15:47;;;;;;;6.15;1.63;;;18.70;89.80;;;;;;5015241;28;20449;-86
2023/12/24 07:18:15;;;;;;;2.70;1.00;;;18.70;89.90;;;;;;5029414;28;20033;-87
2023/12/24 07:20:42;;;;;;;9.50;1.40;;;18.70;89.90;;;;;;5008187;28;20061;-87
2023/12/24 07:23:10;;;;;;;7.25;1.50;;;18.60;90.10;;;;;;5023155;28;20022;-86
2023/12/24 07:25:37;;;;;;;6.53;1.60;;;18.60;90.10;;;;;;5015322;28;20014;-86
2023/12/24 07:28:05;;;;;;;13.52;2.38;;;18.70;90.30;;;;;;5015823;28;20488;-86
2023/12/24 07:30:33;;;;;;;14.07;1.77;;;18.70;90.30;;;;;;5019316;28;20026;-86
2023/12/24 07:33:01;;;;;;;12.68;1.73;;;18.80;90.50;;;;;;5017885;28;20064;-86
2023/12/24 07:35:28;;;;;;;8.38;1.38;;;18.80;90.70;;;;;;5015366;28;20152;-86
2023/12/24 07:37:55;;;;;;;9.68;1.60;;;18.90;90.70;;;;;;5029113;28;20155;-86
2023/12/24 07:40:23;;;;;;;6.53;1.73;;;18.90;90.70;;;;;;5014176;28;20030;-87
2023/12/24 07:42:51;;;;;;;12.50;2.20;;;19.00;90.80;;;;;;5028467;28;20032;-85
2023/12/24 07:45:22;;;;;;;17.40;2.70;;;19.00;90.70;;;;;;5020452;28;20021;-86
2023/12/24 07:47:49;;;;;;;13.00;2.17;;;19.00;90.70;;;;;;5007678;28;20562;-87
2023/12/24 07:50:17;;;;;;;10.23;2.00;;;19.00;90.70;;;;;;5025427;28;20033;-88
2023/12/24 07:52:44;;;;;;;9.90;1.63;;;19.00;90.60;;;;;;5017996;28;20025;-88
2023/12/24 07:55:14;;;;;;;10.32;1.60;;;19.00;90.80;;;;;;5014048;28;20030;-81
2023/12/24 07:57:41;;;;;;;11.80;2.25;;;19.10;90.80;;;;;;5003434;28;20026;-86
2023/12/24 08:00:09;;;;;;;12.45;2.67;;;19.10;90.60;;;;;;4993826;28;20478;-87
2023/12/24 08:02:38;;;;;;;9.23;1.85;;;19.10;90.40;;;;;;5014633;28;20057;-86
2023/12/24 08:05:05;;;;;;;13.25;2.17;;;19.10;90.50;;;;;;5014931;28;20032;-87
2023/12/24 08:07:33;;;;;;;12.02;2.25;;;19.10;90.50;;;;;;5014418;28;20038;-87
2023/12/24 08:10:00;;;;;;;11.15;1.80;;;19.10;90.50;;;;;;5014758;28;20022;-88
2023/12/24 08:12:34;;;;;;;10.15;2.30;;;19.10;90.70;;;;;;5029060;28;20060;-89
2023/12/24 08:15:02;;;;;;;14.82;2.63;;;19.20;90.70;;;;;;5033883;28;20472;-84
2023/12/24 08:17:30;;;;;;;12.27;2.10;;;19.20;90.80;;;;;;5033861;28;20036;-83
2023/12/24 08:19:57;;;;;;;15.10;2.25;;;19.20;90.80;;;;;;5033730;28;20056;-89
2023/12/24 08:22:25;;;;;;;15.88;3.05;;;19.30;90.90;;;;;;5029388;28;20384;-87
2023/12/24 08:24:52;;;;;;;14.05;2.60;;;19.30;90.90;;;;;;5013494;28;20030;-81
2023/12/24 08:27:21;;;;;;;12.80;2.20;;;19.40;90.90;;;;;;5014328;28;20380;-88
2023/12/24 08:29:48;;;;;;;10.55;1.80;;;19.40;90.90;;;;;;5015685;28;20050;-86
2023/12/24 08:32:16;;;;;;;13.57;2.60;;;19.50;90.90;;;;;;5025342;28;20140;-89
2023/12/24 08:34:43;;;;;;;7.55;1.80;;;19.40;90.90;;;;;;5033448;28;20380;-82
2023/12/24 08:37:10;;;;;;;18.38;2.70;;;19.50;90.90;;;;;;5033638;28;20025;-82
2023/12/24 08:39:39;;;;;;;15.88;2.80;;;19.50;91.00;;;;;;5033617;28;20026;-88
2023/12/24 08:42:07;;;;;;;12.77;2.42;;;19.50;90.90;;;;;;5026614;28;20033;-85
2023/12/24 08:44:35;;;;;;;12.02;2.13;;;19.50;90.80;;;;;;5032912;28;20025;-87
2023/12/24 08:47:05;;;;;;;14.50;2.20;;;19.50;90.80;;;;;;5033111;28;20029;-85
2023/12/24 08:49:33;;;;;;;6.10;1.95;;;19.50;90.70;;;;;;5033127;28;20022;-83
2023/12/24 08:52:00;;;;;;;11.32;1.90;;;19.50;90.60;;;;;;5021491;28;20030;-84
2023/12/24 08:54:28;;;;;;;7.50;1.90;;;19.50;90.60;;;;;;5013433;28;20096;-86
2023/12/24 08:56:56;;;;;;;8.70;2.25;;;19.40;90.60;;;;;;5013594;28;20034;-86
2023/12/24 08:59:25;;;;;;;21.27;2.90;;;19.40;90.60;;;;;;5013389;28;20018;-85
2023/12/24 09:01:55;;;;;;;9.65;2.63;;;19.40;90.60;;;;;;5013893;28;20026;-87
2023/12/24 09:04:23;;;;;;;12.45;2.20;;;19.40;90.70;;;;;;5001701;28;20033;-85
2023/12/24 09:06:50;;;;;;;18.02;3.03;;;19.50;90.70;;;;;;5013605;28;20072;-87
2023/12/24 09:09:17;;;;;;;7.43;2.05;;;19.40;90.70;;;;;;5016508;28;20026;-86
2023/12/24 09:11:45;;;;;;;13.95;3.13;;;19.40;90.70;;;;;;5013669;28;20033;-87
2023/12/24 09:14:12;;;;;;;12.63;2.75;;;19.40;90.80;;;;;;5013298;28;20088;-86
2023/12/24 09:16:40;;;;;;;9.82;2.72;;;19.40;90.80;;;;;;5008416;28;20030;-81
2023/12/24 09:19:07;;;;;;;26.70;3.05;;;19.40;90.80;;;;;;5014461;28;20104;-88
2023/12/24 09:21:37;;;;;;;11.88;2.42;;;19.50;90.90;;;;;;5003568;28;20198;-88
2023/12/24 09:24:06;;;;;;;13.10;2.70;;;19.50;90.90;;;;;;4995696;28;20022;-77
2023/12/24 09:26:33;;;;;;;10.98;2.10;;;19.40;91.00;;;;;;4996870;28;20082;-85
2023/12/24 09:29:01;;;;;;;7.80;1.90;;;19.50;91.00;;;;;;5008594;28;20037;-87
2023/12/24 09:31:28;;;;;;;10.25;1.95;;;19.50;91.00;;;;;;5015731;28;20083;-87
2023/12/24 09:33:56;;;;;;;16.67;2.65;;;19.50;91.10;;;;;;5013055;28;20084;-88
2023/12/24 09:36:23;;;;;;;11.43;2.25;;;19.50;91.00;;;;;;5015761;28;20557;-87
2023/12/24 09:38:50;;;;;;;11.82;2.05;;;19.50;91.10;;;;;;5012895;28;20050;-87
2023/12/24 09:41:19;;;;;;;6.07;1.60;;;19.50;91.10;;;;;;5012443;28;20026;-88
2023/12/24 09:43:46;;;;;;;16.92;2.50;;;19.60;91.20;;;;;;5022751;28;20030;-90
2023/12/24 09:46:14;;;;;;;8.60;1.73;;;19.60;91.30;;;;;;5033063;28;20021;-91
2023/12/24 09:48:42;;;;;;;7.97;1.90;;;19.60;91.30;;;;;;5030654;28;20480;-90
2023/12/24 09:51:09;;;;;;;7.25;1.92;;;19.60;91.40;;;;;;5012782;28;20034;-87
2023/12/24 09:53:37;;;;;;;9.30;1.95;;;19.60;91.30;;;;;;5013939;28;20026;-86
2023/12/24 09:56:04;;;;;;;7.05;1.73;;;19.70;91.30;;;;;;5024364;28;20092;-90
2023/12/24 09:58:32;;;;;;;13.13;2.10;;;19.70;91.30;;;;;;5009641;28;20034;-90
2023/12/24 10:01:00;;;;;;;15.15;3.15;;;19.70;91.30;;;;;;5008189;28;20501;-91
2023/12/24 10:03:27;;;;;;;5.28;1.60;;;19.70;91.50;;;;;;5012417;28;20018;-90
2023/12/24 10:06:09;;;;;;;13.20;2.63;;;19.70;91.40;;;;;;5013720;28;20042;-90
2023/12/24 10:08:40;;;;;;;12.90;2.45;;;19.70;91.40;;;;;;5030888;28;20037;-90
2023/12/24 10:11:22;;;;;;;16.92;2.50;;;19.80;91.40;;;;;;5032007;28;20037;-92
2023/12/24 10:14:01;;;;;;;9.27;1.80;;;19.80;91.50;;;;;;5017332;28;20037;-91
2023/12/24 10:16:29;;;;;;;21.10;2.60;;;19.80;91.50;;;;;;5016814;28;20026;-88
2023/12/24 10:18:58;;;;;;;14.52;2.88;;;19.80;91.60;;;;;;5022829;28;20029;-87
2023/12/24 10:21:27;;;;;;;14.00;2.20;;;19.80;91.70;;;;;;5005861;28;20513;-90
2023/12/24 10:24:06;;;;;;;15.35;2.80;;;19.80;91.70;;;;;;5016178;28;20546;-88
2023/12/24 10:26:34;;;;;;;17.45;2.65;;;19.80;91.90;;;;;;5016929;28;20038;-88
2023/12/24 10:29:01;;;;;;;8.88;2.22;;;19.80;92.00;;;;;;5015693;28;20022;-89
2023/12/24 10:31:29;;;;;;;10.02;3.47;;;19.80;91.90;;;;;;5009152;28;20035;-80
2023/12/24 10:34:01;;;;;;;8.93;3.00;;;19.70;92.00;;;;;;5004218;28;20033;-80
2023/12/24 10:36:29;;;;;;;8.73;2.47;;;19.70;91.90;;;;;;5015048;28;20033;-84
2023/12/24 10:38:57;;;;;;;12.55;2.30;;;19.70;92.00;;;;;;5017859;28;20372;-86
2023/12/24 10:41:25;;;;;;;9.38;2.00;;;19.70;92.10;;;;;;5016436;28;20038;-85
2023/12/24 10:43:52;;;;;;;12.13;2.28;;;19.70;92.10;;;;;;5014621;28;20480;-85
2023/12/24 10:46:23;;;;;;;12.23;2.78;;;19.70;92.10;;;;;;5016215;28;20104;-86
2023/12/24 10:48:50;;;;;;;12.63;2.75;;;19.70;92.10;;;;;;5019802;28;20030;-87
2023/12/24 10:51:18;;;;;;;9.80;2.17;;;19.80;92.20;;;;;;5019583;28;20032;-87
2023/12/24 10:53:47;;;;;;;20.15;3.03;;;19.70;92.20;;;;;;5018134;28;20491;-87
2023/12/24 10:56:24;;;;;;;10.85;2.35;;;19.80;92.30;;;;;;5026392;28;20075;-87
2023/12/24 10:59:03;;;;;;;17.08;3.92;;;19.70;92.30;;;;;;5015716;28;20018;-84
2023/12/24 11:01:35;;;;;;;10.80;1.90;;;19.80;92.40;;;;;;5011653;28;20041;-84
2023/12/24 11:04:02;;;;;;;8.82;2.08;;;19.80;92.40;;;;;;5014380;28;20061;-86
2023/12/24 11:07:05;;;;;;;8.95;2.03;;;19.80;92.30;;;;;;5015254;28;20062;-85
2023/12/24 11:09:43;;;;;;;8.93;1.73;;;19.80;92.30;;;;;;5027133;28;20021;-77
2023/12/24 11:12:26;;;;;;;15.65;2.13;;;19.80;92.30;;;;;;5021344;28;20038;-86
2023/12/24 11:14:53;;;;;;;7.88;2.00;;;19.80;92.40;;;;;;5023915;28;20373;-85
2023/12/24 11:17:37;;;;;;;9.75;2.40;;;19.80;92.30;;;;;;5014926;28;20030;-81
2023/12/24 11:20:26;;;;;;;11.45;1.98;;;19.70;92.40;;;;;;5009964;28;20029;-85
2023/12/24 11:23:06;;;;;;;6.35;1.65;;;19.80;92.40;;;;;;5019704;28;20034;-79
2023/12/24 11:25:46;;;;;;;12.38;2.00;;;19.70;92.40;;;;;;5012581;28;20033;-84
2023/12/24 11:28:35;;;;;;;8.93;2.03;;;19.80;92.50;;;;;;5024971;28;20021;-84
2023/12/24 11:31:07;;;;;;;12.93;2.63;;;19.80;92.50;;;;;;5023417;28;20025;-84
2023/12/24 11:33:47;;;;;;;9.95;1.98;;;19.80;92.50;;;;;;5017490;28;20434;-78
2023/12/24 11:36:16;;;;;;;13.88;2.30;;;19.80;92.50;;;;;;5006812;28;20038;-87
2023/12/24 11:38:47;;;;;;;15.98;2.58;;;19.80;92.60;;;;;;5024858;28;20023;-76
2023/12/24 11:41:22;;;;;;;18.42;2.42;;;19.80;92.60;;;;;;5010911;28;20435;-74
2023/12/24 11:44:01;;;;;;;13.90;2.25;;;19.80;92.60;;;;;;5008610;28;20014;-82
2023/12/24 11:46:30;;;;;;;18.20;2.42;;;19.80;92.60;;;;;;5010923;28;20030;-85
2023/12/24 11:49:12;;;;;;;18.80;2.50;;;19.80;92.70;;;;;;5016652;28;20068;-86
2023/12/24 11:51:40;;;;;;;16.27;2.72;;;19.80;92.60;;;;;;5005092;28;20022;-73
2023/12/24 11:54:08;;;;;;;14.23;2.25;;;19.80;92.60;;;;;;5025194;28;20037;-74
2023/12/24 11:56:36;;;;;;;12.48;2.08;;;19.70;92.60;;;;;;5007384;28;20037;-77
2023/12/24 11:59:05;;;;;;;6.65;1.90;;;19.80;92.60;;;;;;5018741;28;20104;-75
2023/12/24 12:01:36;;;;;;;12.18;2.10;;;19.70;92.60;;;;;;5017911;28;20096;-77
2023/12/24 12:04:05;;;;;;;16.08;2.13;;;19.80;92.70;;;;;;5013087;28;20033;-86
2023/12/24 12:06:37;;;;;;;14.18;2.13;;;19.70;92.70;;;;;;5013237;28;20050;-81
2023/12/24 12:09:06;;;;;;;14.40;2.35;;;19.80;92.70;;;;;;5010886;28;20026;-77
2023/12/24 12:11:34;;;;;;;15.25;2.30;;;19.80;92.70;;;;;;5014045;28;20021;-75
2023/12/24 12:14:01;;;;;;;7.15;1.60;;;19.80;92.70;;;;;;5014152;28;20037;-85
2023/12/24 12:16:29;;;;;;;11.25;2.00;;;19.80;92.80;;;;;;5016971;28;20108;-76
2023/12/24 12:18:57;;;;;;;16.23;2.53;;;19.70;92.70;;;;;;5013170;28;20121;-74
2023/12/24 12:21:25;;;;;;;9.65;1.85;;;19.80;92.80;;;;;;5008970;28;20053;-75
2023/12/24 12:23:53;;;;;;;10.35;2.10;;;19.70;92.70;;;;;;5017229;28;20022;-75
2023/12/24 12:26:21;;;;;;;9.05;1.85;;;19.70;92.70;;;;;;5015648;28;20505;-83
2023/12/24 12:28:49;;;;;;;12.18;1.80;;;19.70;92.70;;;;;;5018964;28;20040;-75
2023/12/24 12:31:16;;;;;;;9.20;1.80;;;19.80;92.70;;;;;;5029425;28;20396;-74
2023/12/24 12:33:43;;;;;;;12.25;1.88;;;19.70;92.70;;;;;;5012798;28;20014;-74
2023/12/24 12:36:12;;;;;;;9.48;1.75;;;19.70;92.70;;;;;;5016690;28;20057;-74
2023/12/24 12:38:40;;;;;;;9.73;1.90;;;19.70;92.70;;;;;;5008290;28;20105;-87
2023/12/24 12:41:07;;;;;;;7.97;1.35;;;19.70;92.80;;;;;;5014332;28;20424;-75
2023/12/24 12:43:35;;;;;;;7.80;1.80;;;19.70;92.80;;;;;;5003178;28;20025;-75
2023/12/24 12:46:02;;;;;;;12.70;1.90;;;19.70;92.80;;;;;;5019079;28;20491;-76
2023/12/24 12:48:29;;;;;;;10.60;1.85;;;19.70;92.70;;;;;;5012561;28;20057;-75
2023/12/24 12:50:57;;;;;;;10.40;1.63;;;19.70;92.80;;;;;;5022696;28;20132;-81